Portada
METAR-TAF:

METAR-TAF

Aeroports :

Granada, Espanya

latitud: 37-11N, longitud: 003-47W, altitud: 567 m

Observació

L'informe es va fer fa 39 minuts, a les 21:30 UTC
Vent 1 kt amb direcció variable
Temperatura 21°C
Humitat 56%
Pressió 1024 hPa
Visibilitat 10 km o més
sense núvols per sota de 1500 mi sense presència de cumulonimbus.

METAR: LEGR 252130Z AUTO VRB01KT CAVOK 21/12 Q1024

Hora: 00:09 (22:09 UTC)

Pronòstic

L'informe es va fer fa 2 hores i 9 minuts, a les 20:00 UTC
Pronòstic vàlid del 25 a les 21 UTC al 26 a les 21 UTC
Vent 2 kt amb direcció variable
Visibilitat 10 km o més
sense núvols per sota de 1500 mi sense presència de cumulonimbus.
Evolucionant progressivament
l' 26 a les 13 UTC al 26 a les 15 UTC
Vent 10 kt del Sud
Evolucionant progressivament
l' 26 a les 19 UTC al 26 a les 21 UTC
Vent 2 kt amb direcció variable

TAF: LEGR 252000Z 2521/2621 VRB02KT CAVOK TX32/2614Z TN13/2605Z BECMG 2613/2615 17010KT BECMG 2619/2621 VRB02KT

Observacions i pronòstics meteorològics de més de 4000 aeroports (METAR i TAF).

Les estacions disponibles són els punts grocs i vermells al mapa.

Posi el ratolí al punt desitjat per veure el nom de l'estació.

Feu clic per veure les observacions i els pronòstics meteorològics.

Per canviar el mapa: feu clic els botons verds amb una creu de color negre per apropar; al botó verd amb un guió per allunyar la imatge; o en les fletxes verdes per a mapes adjacents.


METAR-TAF: